Ana Sayfa
METAR-TAF:

METAR-TAF

Havaalanları :

Hua Hin, Tayland

Enlem: 12-35N, Boylam: 099-57E, yükseklik: 5 m

Güncel hava durumu gözlemi

Rapor saat 11:00 UTC de 11 saat ve 5 dakika önce yapıldı.
Rüzgar kuzeydan 6 kt, kuzeybatı ve kuzeydoğu arasında değişken
Sıcaklık 30°C
Nem 66%
Basınç 1009 hPa
Görüş mesafesi: 9000 m
3000 ft yükseklikte az bulutlu

METAR: VTPH 151100Z 01006KT 320V040 9000 FEW030 30/23 Q1009 NOSIG

Saat: 05:05 (22:05 UTC)

Tahmin

Rapor saat 17:00 UTC de 5 saat ve 5 dakika önce yapıldı.
Ayın 15'si saat 18 UTC'den ayın 16'si saat 18 UTC'ye kadar geçerli Tahmin
Rüzgar kuzeydan kt
Görüş mesafesi: 8000 m
3000 ft yükseklikte az bulutlu
Dönüşüyor
ayın 16'si saat 02 UTC'den ayın 16'si saat 04 UTC'ye kadar
Rüzgar kuzey/kuzeydoğudan 8 kt
Görüş mesafesi 10 km veya daha fazla
Dönüşüyor
ayın 16'si saat 16 UTC'den ayın 16'si saat 18 UTC'ye kadar
Rüzgar kuzeydan kt

TAF: VTPH 151700Z 1518/1618 00000KT 8000 FEW030 BECMG 1602/1604 02008KT 9999 BECMG 1616/1618 00000KT

4.000'den fazla havaalanı için hava durumu gözlemleri ve tahminleri (METAR ve TAF raporları).

Kullanılabilir istasyonlar harita üzerinde sarı ve kırmızı noktalarla gösterilir.

İstasyonun adını görmek için fareyi noktanın üzerinde gezdirin.

Sonrasında hava gözlem ve tahminlerini görmek için tıklayın.

Haritayı değiştirmek için: yaklaştırmak için siyah artı işaretli yeşil düğmeye ve uzaklaştırmak için de eksi işaretli düğmeye hızla tıklayın; bitişik haritalar için yeşil okları kullanın.


METAR-TAF: